createdAt,value
2022-08-29T00:00:52.538Z,89.07
2022-08-29T00:03:24.573Z,89.21
2022-08-29T00:05:56.572Z,89.59
2022-08-29T00:08:27.801Z,89.69
2022-08-29T00:10:59.512Z,89.12
2022-08-29T00:13:31.233Z,89.40
2022-08-29T00:16:03.470Z,88.72
2022-08-29T00:18:35.563Z,89.20
2022-08-29T00:21:08.010Z,89.99
2022-08-29T00:23:40.506Z,89.91
2022-08-29T00:26:12.245Z,89.85
2022-08-29T00:28:44.022Z,90.17
2022-08-29T00:31:15.817Z,90.49
2022-08-29T00:33:47.585Z,90.16
2022-08-29T00:36:19.440Z,89.69
2022-08-29T00:38:54.509Z,89.42
2022-08-29T00:41:26.307Z,89.06
2022-08-29T00:43:58.308Z,89.08
2022-08-29T00:46:46.246Z,88.90
2022-08-29T00:49:30.404Z,88.86
2022-08-29T00:52:05.662Z,89.25
2022-08-29T00:54:38.807Z,89.65
2022-08-29T00:57:10.820Z,90.54
2022-08-29T00:59:43.268Z,91.36
2022-08-29T01:02:15.416Z,91.39
2022-08-29T01:04:47.548Z,90.84
2022-08-29T01:07:20.377Z,91.71
2022-08-29T01:09:52.953Z,92.86
2022-08-29T01:12:23.917Z,92.69
2022-08-29T01:14:57.840Z,93.07
2022-08-29T01:17:34.848Z,93.38
2022-08-29T01:20:14.032Z,93.49
2022-08-29T01:23:00.827Z,93.52
2022-08-29T01:25:37.312Z,93.01
2022-08-29T01:28:14.746Z,94.03
2022-08-29T01:31:01.769Z,94.00
2022-08-29T01:33:43.774Z,94.68
2022-08-29T01:36:17.790Z,95.12
2022-08-29T01:38:49.916Z,94.36
2022-08-29T01:41:23.006Z,94.36
2022-08-29T01:43:58.251Z,94.38
2022-08-29T01:46:32.492Z,94.81
2022-08-29T01:49:07.808Z,95.25
2022-08-29T01:51:40.553Z,96.80
2022-08-29T01:54:11.170Z,96.87
2022-08-29T01:56:46.565Z,96.25
2022-08-29T01:59:21.616Z,95.93
2022-08-29T02:01:59.574Z,95.19
2022-08-29T02:04:31.893Z,95.18
2022-08-29T02:07:06.439Z,95.52
2022-08-29T02:09:43.199Z,95.97
2022-08-29T02:12:19.332Z,95.21
2022-08-29T02:14:51.873Z,95.05
2022-08-29T02:17:24.659Z,94.42
2022-08-29T02:19:56.432Z,94.85
2022-08-29T02:22:28.129Z,93.57
2022-08-29T02:25:23.702Z,92.78
2022-08-29T02:27:56.269Z,92.68
2022-08-29T02:30:28.360Z,91.78
2022-08-29T02:32:59.992Z,90.55
2022-08-29T02:35:37.968Z,90.52
2022-08-29T02:38:14.868Z,90.69
2022-08-29T02:40:47.749Z,90.74
2022-08-29T02:43:19.259Z,90.60
2022-08-29T02:45:51.082Z,90.60
2022-08-29T02:48:23.445Z,90.64
2022-08-29T02:50:58.952Z,89.50
2022-08-29T02:53:32.173Z,88.68
2022-08-29T02:56:04.080Z,88.35
2022-08-29T02:58:35.705Z,88.57
2022-08-29T03:01:07.716Z,89.37
2022-08-29T03:03:39.968Z,89.20
2022-08-29T03:06:12.408Z,89.65
2022-08-29T03:08:44.629Z,89.61
2022-08-29T03:11:17.187Z,90.27
2022-08-29T03:13:49.689Z,90.27
2022-08-29T03:16:21.549Z,90.77
2022-08-29T03:18:53.381Z,90.65
2022-08-29T03:21:27.666Z,89.81
2022-08-29T03:23:59.424Z,89.16
2022-08-29T03:26:31.555Z,90.06
2022-08-29T03:29:03.619Z,89.49
2022-08-29T03:31:35.849Z,89.76
2022-08-29T03:34:08.118Z,89.68
2022-08-29T03:36:39.781Z,88.93
2022-08-29T03:39:11.577Z,89.52
2022-08-29T03:41:43.553Z,89.34
2022-08-29T03:44:15.498Z,89.24
2022-08-29T03:46:47.321Z,88.10
2022-08-29T03:49:18.977Z,87.72
2022-08-29T03:51:51.089Z,87.24
2022-08-29T03:54:23.150Z,86.92
2022-08-29T03:56:55.624Z,87.04
2022-08-29T03:59:27.388Z,87.29
2022-08-29T04:01:59.345Z,87.40
2022-08-29T04:04:48.714Z,86.78
2022-08-29T04:07:20.725Z,86.40
2022-08-29T04:09:52.563Z,86.71
2022-08-29T04:12:24.243Z,86.84
2022-08-29T04:14:56.194Z,86.59
2022-08-29T04:17:28.065Z,86.51
2022-08-29T04:19:59.703Z,86.87
2022-08-29T04:22:31.779Z,87.23
2022-08-29T04:25:04.302Z,86.50
2022-08-29T04:27:37.487Z,87.02
2022-08-29T04:30:13.169Z,86.95
2022-08-29T04:32:45.252Z,86.10
2022-08-29T04:35:17.826Z,85.24
2022-08-29T04:37:50.792Z,85.86
2022-08-29T04:40:24.496Z,85.35
2022-08-29T04:42:56.432Z,85.39
2022-08-29T04:45:29.048Z,85.14
2022-08-29T04:48:03.461Z,86.14
2022-08-29T04:50:35.956Z,85.74
2022-08-29T04:53:07.718Z,85.57
2022-08-29T04:55:39.389Z,85.77
2022-08-29T04:58:11.874Z,85.34
2022-08-29T05:00:43.824Z,85.61
2022-08-29T05:03:15.590Z,85.86
2022-08-29T05:05:47.670Z,85.85
2022-08-29T05:08:21.005Z,86.03
2022-08-29T05:10:52.828Z,85.77
2022-08-29T05:13:25.053Z,85.08
2022-08-29T05:15:57.441Z,85.96
2022-08-29T05:18:29.209Z,86.33
2022-08-29T05:21:01.174Z,86.11
2022-08-29T05:23:33.040Z,85.89
2022-08-29T05:26:06.226Z,85.92
2022-08-29T05:28:38.344Z,85.25
2022-08-29T05:31:13.899Z,84.61
2022-08-29T05:33:45.809Z,85.09
2022-08-29T05:36:17.500Z,84.67
2022-08-29T05:38:49.350Z,84.97
2022-08-29T05:41:21.172Z,85.14
2022-08-29T05:43:54.246Z,84.78
2022-08-29T05:46:26.846Z,84.16
2022-08-29T05:48:58.605Z,84.10
2022-08-29T05:51:37.297Z,83.85
2022-08-29T05:54:11.549Z,84.25
2022-08-29T05:56:43.285Z,84.11
2022-08-29T05:59:15.182Z,84.19
2022-08-29T06:01:47.915Z,83.77
2022-08-29T06:04:20.120Z,83.18
2022-08-29T06:06:51.862Z,83.20
2022-08-29T06:09:23.722Z,83.49
2022-08-29T06:11:57.649Z,83.46
2022-08-29T06:14:29.760Z,83.22
2022-08-29T06:17:01.353Z,82.82
2022-08-29T06:19:34.911Z,82.59
2022-08-29T06:22:09.944Z,82.29
2022-08-29T06:24:44.592Z,82.15
2022-08-29T06:27:16.373Z,82.74
2022-08-29T06:29:48.411Z,82.98
2022-08-29T06:32:20.234Z,82.87
2022-08-29T06:34:52.141Z,82.65
2022-08-29T06:37:23.848Z,83.00
2022-08-29T06:39:55.688Z,82.87
2022-08-29T06:42:28.747Z,82.75
2022-08-29T06:45:00.611Z,82.63
2022-08-29T06:47:32.447Z,82.88
2022-08-29T06:50:04.634Z,82.60
2022-08-29T06:52:36.530Z,82.54
2022-08-29T06:55:11.782Z,82.85
2022-08-29T06:57:46.125Z,82.28
2022-08-29T07:00:22.101Z,81.99
2022-08-29T07:02:55.018Z,81.85
2022-08-29T07:05:26.812Z,81.70
2022-08-29T07:07:58.516Z,81.78
2022-08-29T07:10:30.230Z,80.88
2022-08-29T07:13:02.065Z,80.94
2022-08-29T07:15:33.904Z,80.60
2022-08-29T07:18:05.967Z,80.57
2022-08-29T07:20:39.394Z,80.36
2022-08-29T07:23:11.145Z,80.64
2022-08-29T07:25:42.242Z,80.32
2022-08-29T07:28:14.511Z,81.66
2022-08-29T07:30:47.131Z,81.96
2022-08-29T07:33:18.973Z,81.89
2022-08-29T07:35:51.811Z,82.57
2022-08-29T07:38:22.215Z,81.75
2022-08-29T07:41:01.128Z,81.17
2022-08-29T07:43:33.198Z,81.95
2022-08-29T07:46:10.456Z,81.90
2022-08-29T07:48:43.568Z,81.14
2022-08-29T07:51:17.468Z,81.07
2022-08-29T07:53:49.431Z,81.03
2022-08-29T07:56:24.564Z,80.63
2022-08-29T07:58:57.834Z,80.55
2022-08-29T08:01:30.080Z,80.27
2022-08-29T08:04:01.959Z,79.95
2022-08-29T08:06:36.658Z,79.92
2022-08-29T08:09:10.191Z,79.33
2022-08-29T08:11:42.987Z,78.29
2022-08-29T08:14:15.106Z,77.88
2022-08-29T08:16:47.329Z,77.43
2022-08-29T08:19:19.249Z,76.68
2022-08-29T08:21:51.876Z,76.16
2022-08-29T08:24:25.145Z,75.90
2022-08-29T08:26:56.968Z,75.36
2022-08-29T08:29:28.661Z,75.13
2022-08-29T08:32:00.425Z,74.62
2022-08-29T08:34:35.885Z,73.65
2022-08-29T08:37:11.095Z,72.69
2022-08-29T08:39:45.713Z,71.56
2022-08-29T08:42:28.829Z,71.37
2022-08-29T08:45:09.200Z,70.52
2022-08-29T08:47:45.776Z,69.76
2022-08-29T08:50:25.276Z,69.60
2022-08-29T08:53:04.326Z,69.87
2022-08-29T08:55:45.514Z,68.94
2022-08-29T08:58:28.844Z,67.83
2022-08-29T09:01:05.015Z,67.02
2022-08-29T09:03:57.349Z,67.11
2022-08-29T09:06:53.298Z,67.10
2022-08-29T09:09:36.679Z,66.96
2022-08-29T09:12:19.424Z,66.46
2022-08-29T09:15:03.215Z,66.03
2022-08-29T09:17:43.612Z,66.17
2022-08-29T09:20:20.430Z,65.90
2022-08-29T09:23:01.402Z,65.32
2022-08-29T09:25:36.481Z,65.30
2022-08-29T09:28:10.499Z,64.64
2022-08-29T09:30:44.768Z,64.09
2022-08-29T09:33:19.089Z,63.11
2022-08-29T09:35:53.694Z,63.67
2022-08-29T09:38:28.171Z,63.19
2022-08-29T09:41:02.302Z,61.72
2022-08-29T09:43:50.386Z,61.73
2022-08-29T09:46:25.551Z,60.83
2022-08-29T09:49:14.113Z,60.82
2022-08-29T09:51:48.931Z,59.66
2022-08-29T09:54:28.246Z,59.09
2022-08-29T09:57:06.588Z,58.73
2022-08-29T09:59:41.861Z,58.43
2022-08-29T10:02:22.705Z,58.19
2022-08-29T10:04:57.784Z,58.03
2022-08-29T10:07:31.632Z,58.43
2022-08-29T10:10:08.014Z,57.78
2022-08-29T10:12:51.016Z,57.51
2022-08-29T10:15:49.206Z,56.99
2022-08-29T10:18:28.844Z,56.09
2022-08-29T10:21:13.415Z,55.92
2022-08-29T10:24:01.119Z,55.61
2022-08-29T10:26:42.656Z,55.60
2022-08-29T10:29:31.455Z,55.42
2022-08-29T10:32:11.371Z,55.29
2022-08-29T10:35:01.892Z,55.00
2022-08-29T10:37:44.801Z,53.88
2022-08-29T10:40:17.590Z,53.61
2022-08-29T10:42:49.373Z,53.48
2022-08-29T10:45:36.294Z,54.32
2022-08-29T10:48:14.185Z,54.38
2022-08-29T10:50:54.180Z,54.93
2022-08-29T10:53:31.954Z,55.24
2022-08-29T10:56:13.441Z,54.56
2022-08-29T10:58:57.135Z,54.36
2022-08-29T11:01:35.482Z,53.81
2022-08-29T11:04:17.799Z,53.39
2022-08-29T11:06:56.855Z,53.74
2022-08-29T11:09:34.962Z,52.88
2022-08-29T11:12:17.668Z,53.55
2022-08-29T11:14:54.208Z,53.86
2022-08-29T11:17:31.038Z,53.40
2022-08-29T11:20:11.708Z,52.62
2022-08-29T11:22:49.642Z,52.88
2022-08-29T11:25:23.318Z,53.04
2022-08-29T11:28:04.575Z,52.95
2022-08-29T11:30:44.890Z,53.41
2022-08-29T11:33:24.043Z,53.99
2022-08-29T11:36:13.607Z,54.13
2022-08-29T11:39:02.775Z,53.62
2022-08-29T11:41:37.138Z,52.90
2022-08-29T11:44:19.110Z,53.43
2022-08-29T11:46:56.228Z,52.85
2022-08-29T11:49:39.797Z,53.81
2022-08-29T11:52:22.824Z,53.29
2022-08-29T11:55:24.230Z,53.37
2022-08-29T11:58:07.201Z,53.35
2022-08-29T12:00:53.232Z,53.07
2022-08-29T12:03:57.273Z,53.29
2022-08-29T12:07:01.055Z,52.59
2022-08-29T12:09:47.369Z,51.22
2022-08-29T12:12:40.607Z,51.51
2022-08-29T12:15:46.272Z,51.59
2022-08-29T12:18:36.673Z,52.00
2022-08-29T12:21:45.687Z,52.13
2022-08-29T12:24:40.915Z,51.95
2022-08-29T12:27:47.624Z,52.21
2022-08-29T12:30:20.737Z,52.39
2022-08-29T12:33:05.065Z,52.43
2022-08-29T12:36:18.258Z,52.84
2022-08-29T12:39:07.288Z,53.07
2022-08-29T12:41:52.616Z,53.15
2022-08-29T12:44:29.246Z,53.20
2022-08-29T12:47:08.719Z,53.61
2022-08-29T12:49:51.401Z,54.05
2022-08-29T12:52:27.792Z,54.37
2022-08-29T12:55:17.594Z,54.46
2022-08-29T12:57:50.451Z,53.95
2022-08-29T13:00:25.510Z,54.13
2022-08-29T13:03:04.108Z,54.23
2022-08-29T13:05:38.319Z,54.35
2022-08-29T13:08:13.390Z,54.52
2022-08-29T13:10:57.877Z,54.70
2022-08-29T13:13:30.535Z,54.52
2022-08-29T13:16:02.277Z,54.60
2022-08-29T13:18:44.596Z,55.54
2022-08-29T13:21:28.224Z,55.62
2022-08-29T13:24:12.759Z,55.89
2022-08-29T13:27:04.541Z,57.35
2022-08-29T13:29:40.810Z,58.47
2022-08-29T13:32:23.190Z,59.11
2022-08-29T13:35:17.658Z,59.69
2022-08-29T13:38:18.807Z,60.49
2022-08-29T13:40:53.429Z,60.81
2022-08-29T13:43:36.836Z,60.85
2022-08-29T13:46:18.260Z,61.03
2022-08-29T13:48:58.585Z,60.94
2022-08-29T13:51:30.443Z,60.66
2022-08-29T13:54:02.179Z,61.13
2022-08-29T13:56:35.124Z,61.12
2022-08-29T13:59:07.057Z,61.35
2022-08-29T14:04:40.415Z,61.28
2022-08-29T14:07:19.187Z,60.68
2022-08-29T14:09:52.234Z,60.19
2022-08-29T14:12:33.749Z,60.42
2022-08-29T14:15:09.717Z,60.68
2022-08-29T14:17:43.674Z,60.79
2022-08-29T14:20:19.490Z,61.01
2022-08-29T14:22:51.196Z,61.30
2022-08-29T14:25:25.018Z,60.84
2022-08-29T14:27:56.997Z,61.07
2022-08-29T14:30:28.953Z,60.82
2022-08-29T14:33:01.701Z,60.77
2022-08-29T14:35:33.857Z,60.48
2022-08-29T14:38:11.100Z,60.33
2022-08-29T14:40:43.693Z,59.82
2022-08-29T14:43:16.031Z,60.75
2022-08-29T14:45:47.798Z,61.31
2022-08-29T14:48:19.633Z,62.01
2022-08-29T14:50:51.475Z,61.87
2022-08-29T14:53:23.464Z,61.98
2022-08-29T14:55:56.024Z,60.16
2022-08-29T14:58:26.446Z,59.80
2022-08-29T15:00:58.715Z,60.43
2022-08-29T15:03:31.228Z,59.96
2022-08-29T15:06:03.286Z,59.03
2022-08-29T15:08:35.336Z,58.29
2022-08-29T15:11:07.518Z,58.13
2022-08-29T15:13:39.557Z,59.20
2022-08-29T15:16:12.013Z,58.96
2022-08-29T15:19:31.191Z,58.20
2022-08-29T15:21:34.243Z,58.41
2022-08-29T15:24:06.821Z,58.67
2022-08-29T15:26:37.016Z,58.97
2022-08-29T15:29:09.485Z,58.97
2022-08-29T15:31:41.227Z,59.19
2022-08-29T15:34:13.144Z,59.47
2022-08-29T15:36:45.057Z,59.13
2022-08-29T15:39:17.397Z,59.25
2022-08-29T15:41:49.818Z,59.63
2022-08-29T15:44:21.711Z,59.87
2022-08-29T15:46:52.573Z,59.83
2022-08-29T15:49:26.430Z,60.23
2022-08-29T15:51:59.289Z,60.82
2022-08-29T15:54:31.021Z,61.32
2022-08-29T15:57:04.038Z,61.73
2022-08-29T15:59:57.149Z,61.46
2022-08-29T16:02:29.011Z,61.46
2022-08-29T16:05:02.120Z,61.23
2022-08-29T16:07:33.997Z,61.64
2022-08-29T16:10:10.892Z,62.44
2022-08-29T16:12:43.617Z,62.52
2022-08-29T16:15:16.708Z,63.15
2022-08-29T16:17:49.065Z,63.28
2022-08-29T16:20:20.915Z,63.80
2022-08-29T16:22:52.780Z,63.84
2022-08-29T16:25:25.599Z,63.99
2022-08-29T16:27:57.923Z,63.77
2022-08-29T16:30:30.794Z,64.35
2022-08-29T16:33:01.747Z,64.96
2022-08-29T16:35:33.489Z,65.36
2022-08-29T16:38:05.522Z,65.27
2022-08-29T16:40:37.536Z,65.08
2022-08-29T16:43:10.203Z,65.64
2022-08-29T16:45:41.970Z,65.43
2022-08-29T16:48:15.700Z,65.40
2022-08-29T16:50:50.152Z,65.85
2022-08-29T16:53:22.685Z,65.81
2022-08-29T16:55:54.501Z,65.97
2022-08-29T16:58:44.082Z,66.02
2022-08-29T17:01:16.304Z,66.21
2022-08-29T17:03:48.769Z,66.34
2022-08-29T17:06:20.520Z,66.21
2022-08-29T17:08:51.462Z,66.35
2022-08-29T17:11:23.159Z,66.44
2022-08-29T17:13:54.200Z,66.48
2022-08-29T17:16:25.602Z,66.93
2022-08-29T17:18:58.150Z,67.13
2022-08-29T17:21:31.881Z,67.69
2022-08-29T17:24:06.800Z,67.68
2022-08-29T17:26:42.172Z,68.13
2022-08-29T17:29:14.080Z,68.63
2022-08-29T17:31:47.075Z,69.07
2022-08-29T17:34:19.595Z,70.10
2022-08-29T17:36:51.334Z,70.42
2022-08-29T17:39:23.916Z,70.56
2022-08-29T17:41:55.864Z,70.73
2022-08-29T17:44:27.835Z,70.92
2022-08-29T17:46:59.980Z,71.63
2022-08-29T17:49:32.418Z,74.32
2022-08-29T17:52:04.636Z,73.91
2022-08-29T17:54:36.652Z,73.50
2022-08-29T17:57:09.414Z,73.30
2022-08-29T17:59:42.487Z,73.66
2022-08-29T18:02:15.440Z,73.85
2022-08-29T18:04:47.205Z,71.94
2022-08-29T18:07:18.973Z,72.82
2022-08-29T18:09:50.761Z,72.68
2022-08-29T18:12:22.647Z,72.22
2022-08-29T18:14:55.028Z,72.69
2022-08-29T18:17:26.810Z,72.68
2022-08-29T18:19:59.244Z,72.95
2022-08-29T18:22:31.330Z,73.46
2022-08-29T18:25:03.121Z,73.00
2022-08-29T18:27:35.146Z,73.10
2022-08-29T18:30:09.934Z,73.57
2022-08-29T18:32:42.209Z,73.61
2022-08-29T18:35:14.207Z,73.65
2022-08-29T18:37:46.195Z,73.56
2022-08-29T18:40:18.016Z,73.63
2022-08-29T18:42:49.811Z,73.45
2022-08-29T18:45:21.855Z,75.44
2022-08-29T18:47:53.700Z,75.76
2022-08-29T18:50:35.502Z,75.50
2022-08-29T18:53:11.949Z,74.82
2022-08-29T18:55:51.047Z,75.81
2022-08-29T18:58:27.722Z,76.63
2022-08-29T19:01:00.687Z,75.05
2022-08-29T19:03:33.219Z,75.66
2022-08-29T19:06:06.063Z,74.82
2022-08-29T19:08:39.610Z,76.88
2022-08-29T19:11:12.394Z,75.71
2022-08-29T19:13:46.279Z,75.64
2022-08-29T19:16:21.548Z,75.31
2022-08-29T19:18:54.347Z,76.25
2022-08-29T19:21:26.985Z,74.90
2022-08-29T19:23:59.201Z,75.32
2022-08-29T19:26:37.259Z,75.18
2022-08-29T19:29:13.334Z,74.84
2022-08-29T19:31:46.496Z,74.49
2022-08-29T19:34:18.757Z,73.59
2022-08-29T19:36:51.661Z,75.04
2022-08-29T19:39:24.236Z,74.27
2022-08-29T19:41:56.661Z,74.58
2022-08-29T19:44:31.049Z,74.68
2022-08-29T19:47:07.056Z,74.04
2022-08-29T19:49:40.999Z,74.43
2022-08-29T19:52:15.253Z,75.90
2022-08-29T19:54:47.099Z,75.47
2022-08-29T19:57:22.824Z,75.46
2022-08-29T19:59:55.261Z,75.25
2022-08-29T20:02:28.172Z,75.52
2022-08-29T20:05:00.504Z,75.98
2022-08-29T20:07:32.333Z,76.02
2022-08-29T20:10:04.139Z,76.38
2022-08-29T20:12:36.959Z,76.22
2022-08-29T20:15:12.662Z,76.61
2022-08-29T20:17:44.497Z,77.18
2022-08-29T20:20:20.604Z,76.82
2022-08-29T20:22:52.861Z,77.80
2022-08-29T20:25:25.740Z,78.42
2022-08-29T20:27:57.479Z,78.86
2022-08-29T20:30:32.169Z,78.41
2022-08-29T20:33:04.712Z,79.16
2022-08-29T20:35:55.178Z,79.34
2022-08-29T20:38:27.128Z,80.85
2022-08-29T20:41:00.580Z,81.73
2022-08-29T20:43:32.564Z,81.73
2022-08-29T20:46:08.888Z,82.05
2022-08-29T20:48:40.823Z,82.01
2022-08-29T20:51:13.193Z,82.16
2022-08-29T20:53:45.288Z,81.70
2022-08-29T20:56:16.968Z,82.39
2022-08-29T20:58:48.743Z,82.20
2022-08-29T21:01:21.130Z,81.80
2022-08-29T21:04:10.817Z,81.81
2022-08-29T21:06:42.638Z,81.73
2022-08-29T21:09:14.381Z,82.36
2022-08-29T21:11:46.132Z,82.13
2022-08-29T21:14:18.038Z,83.12
2022-08-29T21:16:50.488Z,82.83
2022-08-29T21:19:21.307Z,83.44
2022-08-29T21:21:53.919Z,83.81
2022-08-29T21:24:25.986Z,83.58
2022-08-29T21:26:58.217Z,84.03
2022-08-29T21:29:30.292Z,83.99
2022-08-29T21:32:02.272Z,84.16
2022-08-29T21:34:34.218Z,84.84
2022-08-29T21:37:06.622Z,85.66
2022-08-29T21:39:38.429Z,85.51
2022-08-29T21:42:10.377Z,85.27
2022-08-29T21:44:42.774Z,86.15
2022-08-29T21:47:17.711Z,86.25
2022-08-29T21:49:51.660Z,85.47
2022-08-29T21:52:24.025Z,85.27
2022-08-29T21:54:55.965Z,85.53
2022-08-29T21:57:45.378Z,86.31
2022-08-29T22:00:18.428Z,86.68
2022-08-29T22:02:50.787Z,87.70
2022-08-29T22:05:23.305Z,87.14
2022-08-29T22:07:55.073Z,87.86
2022-08-29T22:10:30.387Z,88.15
2022-08-29T22:13:03.754Z,88.41
2022-08-29T22:15:53.321Z,88.62
2022-08-29T22:18:25.402Z,87.78
2022-08-29T22:20:58.537Z,87.97
2022-08-29T22:23:30.768Z,88.44
2022-08-29T22:26:02.557Z,88.94
2022-08-29T22:28:34.251Z,89.27
2022-08-29T22:31:06.327Z,89.32
2022-08-29T22:33:38.390Z,89.23
2022-08-29T22:36:13.856Z,89.34
2022-08-29T22:38:47.366Z,89.83
2022-08-29T22:41:25.834Z,89.37
2022-08-29T22:44:31.958Z,89.86
2022-08-29T22:46:49.883Z,89.22
2022-08-29T22:49:21.703Z,89.80
2022-08-29T22:51:53.831Z,89.62
2022-08-29T22:54:37.630Z,90.16
2022-08-29T22:57:11.814Z,90.66
2022-08-29T22:59:44.922Z,90.54
2022-08-29T23:02:17.551Z,90.09
2022-08-29T23:04:51.597Z,90.20
2022-08-29T23:07:24.470Z,90.16
2022-08-29T23:09:56.509Z,90.84
2022-08-29T23:12:28.612Z,91.05
2022-08-29T23:15:00.516Z,91.44
2022-08-29T23:17:32.686Z,92.01
2022-08-29T23:20:05.596Z,92.15
2022-08-29T23:22:37.950Z,91.02
2022-08-29T23:25:12.132Z,91.11
2022-08-29T23:27:44.413Z,91.20
2022-08-29T23:30:16.869Z,91.36
2022-08-29T23:32:48.552Z,91.39
2022-08-29T23:35:20.350Z,92.01
2022-08-29T23:37:52.164Z,92.08
2022-08-29T23:40:23.984Z,92.54
2022-08-29T23:42:55.995Z,92.99
2022-08-29T23:45:27.880Z,92.30
2022-08-29T23:47:59.746Z,93.00
2022-08-29T23:50:31.607Z,93.25
2022-08-29T23:53:03.407Z,92.97
2022-08-29T23:55:35.225Z,92.38
2022-08-29T23:58:06.982Z,92.30
